createdAt,value
2018-04-22T00:00:21.023Z,16.00
2018-04-22T00:01:21.017Z,15.98
2018-04-22T00:02:21.023Z,15.98
2018-04-22T00:03:21.359Z,16.02
2018-04-22T00:04:21.003Z,16.05
2018-04-22T00:05:21.001Z,16.05
2018-04-22T00:06:20.992Z,16.12
2018-04-22T00:07:20.988Z,16.12
2018-04-22T00:08:20.982Z,16.12
2018-04-22T00:09:20.976Z,16.29
2018-04-22T00:10:20.974Z,16.26
2018-04-22T00:11:20.968Z,16.38
2018-04-22T00:12:20.964Z,16.43
2018-04-22T00:13:20.958Z,16.35
2018-04-22T00:14:20.954Z,16.31
2018-04-22T00:15:20.949Z,16.24
2018-04-22T00:16:20.946Z,16.08
2018-04-22T00:17:20.938Z,16.13
2018-04-22T00:18:20.934Z,15.98
2018-04-22T00:19:20.928Z,15.97
2018-04-22T00:20:20.925Z,15.86
2018-04-22T00:21:20.918Z,15.91
2018-04-22T00:22:20.914Z,15.76
2018-04-22T00:23:20.912Z,15.79
2018-04-22T00:24:20.904Z,15.76
2018-04-22T00:25:20.898Z,15.61
2018-04-22T00:26:20.893Z,15.64
2018-04-22T00:27:20.889Z,15.76
2018-04-22T00:28:20.883Z,15.77
2018-04-22T00:29:20.877Z,15.91
2018-04-22T00:30:20.873Z,15.90
2018-04-22T00:31:20.871Z,15.91
2018-04-22T00:32:20.863Z,15.91
2018-04-22T00:33:20.856Z,15.95
2018-04-22T00:34:20.852Z,16.04
2018-04-22T00:35:20.847Z,16.04
2018-04-22T00:36:20.843Z,16.08
2018-04-22T00:37:20.840Z,16.10
2018-04-22T00:38:20.832Z,16.13
2018-04-22T00:39:20.826Z,16.10
2018-04-22T00:40:20.821Z,16.12
2018-04-22T00:41:20.816Z,16.10
2018-04-22T00:42:20.810Z,16.05
2018-04-22T00:43:20.805Z,16.13
2018-04-22T00:44:20.802Z,16.04
2018-04-22T00:45:20.796Z,15.94
2018-04-22T00:46:20.790Z,15.84
2018-04-22T00:47:20.785Z,15.79
2018-04-22T00:48:20.781Z,15.73
2018-04-22T00:49:20.775Z,15.77
2018-04-22T00:50:20.770Z,15.68
2018-04-22T00:51:20.766Z,15.67
2018-04-22T00:52:20.767Z,15.68
2018-04-22T00:53:20.760Z,15.61
2018-04-22T00:54:20.753Z,15.58
2018-04-22T00:55:20.745Z,15.65
2018-04-22T00:56:20.789Z,15.58
2018-04-22T00:57:20.734Z,15.57
2018-04-22T00:58:20.730Z,15.58
2018-04-22T00:59:20.725Z,15.57
2018-04-22T01:00:20.724Z,15.57
2018-04-22T01:01:20.714Z,15.58
2018-04-22T01:02:20.709Z,15.47
2018-04-22T01:03:20.704Z,15.54
2018-04-22T01:04:20.704Z,15.58
2018-04-22T01:05:20.693Z,15.57
2018-04-22T01:06:20.692Z,15.55
2018-04-22T01:07:20.683Z,15.54
2018-04-22T01:08:20.678Z,15.52
2018-04-22T01:09:20.672Z,15.57
2018-04-22T01:10:20.667Z,15.55
2018-04-22T01:11:20.663Z,15.68
2018-04-22T01:12:20.656Z,15.79
2018-04-22T01:13:20.650Z,15.82
2018-04-22T01:14:20.645Z,15.92
2018-04-22T01:15:20.640Z,16.00
2018-04-22T01:16:20.636Z,15.94
2018-04-22T01:17:20.630Z,15.97
2018-04-22T01:18:20.625Z,15.97
2018-04-22T01:19:20.619Z,16.01
2018-04-22T01:20:20.614Z,16.01
2018-04-22T01:21:20.608Z,16.00
2018-04-22T01:22:20.604Z,15.91
2018-04-22T01:23:20.599Z,15.98
2018-04-22T01:24:20.596Z,15.94
2018-04-22T01:25:20.592Z,16.04
2018-04-22T01:26:20.584Z,16.04
2018-04-22T01:27:20.580Z,16.05
2018-04-22T01:28:20.576Z,16.08
2018-04-22T01:29:20.569Z,16.09
2018-04-22T01:30:20.563Z,16.08
2018-04-22T01:31:20.557Z,16.02
2018-04-22T01:32:20.554Z,16.01
2018-04-22T01:33:20.547Z,15.97
2018-04-22T01:34:20.541Z,16.00
2018-04-22T01:35:20.541Z,15.97
2018-04-22T01:36:20.531Z,15.95
2018-04-22T01:37:20.526Z,15.91
2018-04-22T01:38:20.522Z,15.88
2018-04-22T01:39:20.517Z,15.88
2018-04-22T01:40:20.511Z,15.97
2018-04-22T01:41:20.509Z,15.95
2018-04-22T01:42:20.500Z,15.98
2018-04-22T01:43:20.495Z,15.94
2018-04-22T01:44:20.490Z,16.02
2018-04-22T01:45:20.486Z,16.01
2018-04-22T01:46:20.479Z,15.88
2018-04-22T01:47:20.476Z,15.98
2018-04-22T01:48:20.470Z,15.98
2018-04-22T01:49:20.463Z,16.01
2018-04-22T01:50:20.459Z,16.02
2018-04-22T01:51:20.454Z,16.01
2018-04-22T01:52:20.448Z,16.02
2018-04-22T01:53:20.442Z,16.01
2018-04-22T01:54:20.437Z,16.02
2018-04-22T01:55:20.432Z,15.97
2018-04-22T01:56:20.425Z,15.95
2018-04-22T01:57:20.420Z,15.88
2018-04-22T01:58:20.416Z,15.77
2018-04-22T01:59:20.409Z,15.75
2018-04-22T02:00:20.404Z,15.77
2018-04-22T02:01:20.399Z,15.64
2018-04-22T02:02:20.394Z,15.67
2018-04-22T02:03:20.391Z,15.61
2018-04-22T02:04:20.383Z,15.68
2018-04-22T02:05:20.376Z,15.62
2018-04-22T02:06:20.372Z,15.62
2018-04-22T02:07:20.367Z,15.73
2018-04-22T02:08:20.363Z,15.84
2018-04-22T02:09:20.357Z,15.82
2018-04-22T02:10:20.350Z,15.67
2018-04-22T02:11:20.344Z,15.65
2018-04-22T02:12:20.340Z,15.57
2018-04-22T02:13:20.333Z,15.52
2018-04-22T02:14:20.327Z,15.59
2018-04-22T02:15:20.328Z,15.54
2018-04-22T02:16:20.320Z,15.52
2018-04-22T02:17:20.315Z,15.54
2018-04-22T02:18:20.306Z,15.55
2018-04-22T02:19:20.301Z,15.62
2018-04-22T02:20:20.297Z,15.61
2018-04-22T02:21:20.292Z,15.55
2018-04-22T02:22:20.285Z,15.55
2018-04-22T02:23:20.279Z,15.42
2018-04-22T02:24:20.275Z,15.43
2018-04-22T02:25:20.269Z,15.40
2018-04-22T02:26:20.263Z,15.36
2018-04-22T02:27:20.257Z,15.27
2018-04-22T02:28:20.253Z,15.33
2018-04-22T02:29:20.248Z,15.24
2018-04-22T02:30:20.241Z,15.24
2018-04-22T02:31:20.236Z,15.17
2018-04-22T02:32:20.232Z,15.11
2018-04-22T02:33:20.224Z,15.02
2018-04-22T02:34:20.220Z,15.00
2018-04-22T02:35:20.214Z,14.96
2018-04-22T02:36:20.211Z,14.96
2018-04-22T02:37:20.201Z,14.94
2018-04-22T02:38:20.200Z,14.92
2018-04-22T02:39:20.191Z,14.99
2018-04-22T02:40:20.187Z,14.97
2018-04-22T02:41:20.180Z,14.91
2018-04-22T02:42:20.174Z,14.92
2018-04-22T02:43:20.169Z,14.81
2018-04-22T02:44:20.163Z,14.79
2018-04-22T02:45:20.158Z,14.78
2018-04-22T02:46:20.158Z,14.69
2018-04-22T02:47:20.146Z,14.66
2018-04-22T02:48:20.145Z,14.63
2018-04-22T02:49:20.134Z,14.59
2018-04-22T02:50:20.129Z,14.53
2018-04-22T02:51:20.125Z,14.53
2018-04-22T02:52:20.124Z,14.40
2018-04-22T02:53:20.111Z,14.47
2018-04-22T02:54:20.113Z,14.43
2018-04-22T02:55:20.100Z,14.37
2018-04-22T02:56:20.101Z,14.33
2018-04-22T02:57:20.088Z,14.25
2018-04-22T02:58:20.082Z,14.28
2018-04-22T02:59:20.076Z,14.36
2018-04-22T03:00:20.072Z,14.28
2018-04-22T03:01:20.070Z,14.37
2018-04-22T03:02:20.059Z,14.37
2018-04-22T03:03:20.052Z,14.37
2018-04-22T03:04:20.050Z,14.33
2018-04-22T03:05:20.045Z,14.30
2018-04-22T03:06:20.035Z,14.26
2018-04-22T03:07:20.030Z,14.23
2018-04-22T03:08:20.024Z,14.28
2018-04-22T03:09:20.022Z,14.23
2018-04-22T03:10:20.012Z,14.32
2018-04-22T03:11:20.005Z,14.29
2018-04-22T03:12:19.999Z,14.30
2018-04-22T03:13:19.991Z,14.28
2018-04-22T03:14:19.987Z,14.32
2018-04-22T03:15:20.030Z,14.33
2018-04-22T03:16:19.974Z,14.25
2018-04-22T03:17:19.968Z,14.26
2018-04-22T03:18:19.961Z,14.32
2018-04-22T03:19:19.958Z,14.37
2018-04-22T03:20:19.951Z,14.37
2018-04-22T03:21:19.943Z,14.47
2018-04-22T03:22:19.974Z,14.43
2018-04-22T03:23:19.931Z,14.45
2018-04-22T03:24:19.925Z,14.45
2018-04-22T03:25:19.922Z,14.44
2018-04-22T03:26:19.914Z,14.45
2018-04-22T03:27:19.907Z,14.48
2018-04-22T03:28:19.902Z,14.36
2018-04-22T03:29:19.893Z,14.40
2018-04-22T03:30:19.888Z,14.37
2018-04-22T03:31:19.883Z,14.37
2018-04-22T03:32:19.876Z,14.35
2018-04-22T03:33:19.870Z,14.28
2018-04-22T03:34:19.863Z,14.30
2018-04-22T03:35:19.857Z,14.25
2018-04-22T03:36:19.852Z,14.20
2018-04-22T03:37:19.845Z,14.14
2018-04-22T03:38:19.840Z,14.07
2018-04-22T03:39:19.834Z,14.08
2018-04-22T03:40:19.828Z,13.99
2018-04-22T03:41:19.822Z,13.95
2018-04-22T03:42:19.817Z,13.90
2018-04-22T03:43:19.809Z,13.78
2018-04-22T03:44:19.805Z,13.81
2018-04-22T03:45:19.799Z,13.77
2018-04-22T03:46:19.793Z,13.75
2018-04-22T03:47:19.786Z,13.74
2018-04-22T03:48:19.780Z,13.70
2018-04-22T03:49:19.774Z,13.70
2018-04-22T03:50:19.769Z,13.67
2018-04-22T03:51:19.861Z,13.78
2018-04-22T03:52:19.755Z,13.63
2018-04-22T03:53:19.748Z,13.68
2018-04-22T03:54:19.742Z,13.65
2018-04-22T03:55:19.738Z,13.68
2018-04-22T03:56:19.730Z,13.70
2018-04-22T03:57:19.724Z,13.68
2018-04-22T03:58:19.717Z,13.67
2018-04-22T03:59:19.711Z,13.63
2018-04-22T04:00:19.717Z,13.65
2018-04-22T04:01:19.698Z,13.70
2018-04-22T04:02:19.692Z,13.62
2018-04-22T04:03:19.686Z,13.60
2018-04-22T04:04:19.682Z,13.59
2018-04-22T04:05:19.673Z,13.49
2018-04-22T04:06:19.669Z,13.47
2018-04-22T04:07:19.662Z,13.44
2018-04-22T04:08:19.658Z,13.46
2018-04-22T04:09:19.647Z,13.41
2018-04-22T04:10:19.641Z,13.30
2018-04-22T04:11:19.636Z,13.35
2018-04-22T04:12:19.630Z,13.25
2018-04-22T04:13:19.622Z,13.20
2018-04-22T04:14:19.616Z,13.22
2018-04-22T04:15:19.610Z,13.15
2018-04-22T04:16:19.604Z,13.15
2018-04-22T04:17:19.596Z,13.11
2018-04-22T04:18:19.595Z,13.13
2018-04-22T04:19:19.595Z,13.12
2018-04-22T04:20:19.578Z,13.12
2018-04-22T04:21:19.573Z,13.08
2018-04-22T04:22:19.568Z,13.13
2018-04-22T04:23:19.558Z,13.09
2018-04-22T04:24:19.552Z,12.98
2018-04-22T04:25:19.546Z,13.09
2018-04-22T04:26:19.539Z,13.04
2018-04-22T04:27:19.639Z,13.05
2018-04-22T04:28:19.526Z,13.01
2018-04-22T04:29:19.518Z,13.01
2018-04-22T04:30:19.516Z,13.01
2018-04-22T04:31:19.505Z,12.98
2018-04-22T04:32:19.499Z,12.97
2018-04-22T04:33:19.493Z,12.98
2018-04-22T04:34:19.486Z,13.00
2018-04-22T04:35:19.480Z,12.91
2018-04-22T04:36:19.473Z,12.91
2018-04-22T04:37:19.466Z,13.00
2018-04-22T04:38:19.459Z,13.01
2018-04-22T04:39:19.453Z,12.95
2018-04-22T04:40:19.445Z,13.08
2018-04-22T04:41:19.438Z,13.12
2018-04-22T04:42:19.432Z,13.09
2018-04-22T04:43:19.426Z,13.01
2018-04-22T04:44:19.419Z,12.98
2018-04-22T04:45:19.413Z,12.90
2018-04-22T04:46:19.405Z,12.97
2018-04-22T04:47:19.399Z,13.00
2018-04-22T04:48:19.395Z,12.90
2018-04-22T04:49:19.385Z,12.91
2018-04-22T04:50:19.384Z,12.95
2018-04-22T04:51:19.373Z,12.87
2018-04-22T04:52:19.366Z,12.93
2018-04-22T04:53:19.361Z,13.00
2018-04-22T04:54:19.395Z,12.94
2018-04-22T04:55:19.346Z,13.01
2018-04-22T04:56:19.339Z,13.04
2018-04-22T04:57:19.333Z,13.04
2018-04-22T04:58:19.328Z,12.97
2018-04-22T04:59:19.319Z,12.98
2018-04-22T05:00:19.371Z,12.98
2018-04-22T05:01:19.305Z,13.08
2018-04-22T05:02:19.300Z,13.01
2018-04-22T05:03:19.292Z,13.01
2018-04-22T05:04:19.286Z,13.09
2018-04-22T05:05:19.279Z,13.15
2018-04-22T05:06:19.275Z,13.11
2018-04-22T05:07:19.266Z,13.23
2018-04-22T05:08:19.259Z,13.25
2018-04-22T05:09:19.251Z,13.22
2018-04-22T05:10:19.246Z,13.31
2018-04-22T05:11:19.247Z,13.39
2018-04-22T05:12:19.232Z,13.30
2018-04-22T05:13:19.229Z,13.37
2018-04-22T05:14:19.220Z,13.44
2018-04-22T05:15:19.212Z,13.47
2018-04-22T05:16:19.212Z,13.44
2018-04-22T05:17:19.200Z,13.50
2018-04-22T05:18:19.193Z,13.44
2018-04-22T05:19:19.186Z,13.50
2018-04-22T05:20:19.181Z,13.53
2018-04-22T05:21:19.173Z,13.52
2018-04-22T05:22:19.170Z,13.65
2018-04-22T05:23:19.162Z,13.68
2018-04-22T05:24:19.216Z,13.68
2018-04-22T05:25:19.152Z,13.77
2018-04-22T05:26:19.142Z,13.81
2018-04-22T05:27:19.136Z,13.85
2018-04-22T05:28:19.130Z,13.92
2018-04-22T05:29:19.126Z,13.96
2018-04-22T05:30:19.116Z,13.99
2018-04-22T05:31:19.112Z,14.04
2018-04-22T05:32:19.105Z,14.12
2018-04-22T05:33:19.098Z,14.07
2018-04-22T05:34:19.093Z,14.14
2018-04-22T05:35:19.088Z,14.23
2018-04-22T05:36:19.081Z,14.25
2018-04-22T05:37:19.074Z,14.23
2018-04-22T05:38:19.069Z,14.40
2018-04-22T05:39:19.113Z,14.32
2018-04-22T05:40:19.058Z,14.44
2018-04-22T05:41:19.050Z,14.55
2018-04-22T05:42:19.045Z,14.63
2018-04-22T05:43:19.039Z,14.72
2018-04-22T05:44:19.034Z,14.77
2018-04-22T05:45:19.029Z,14.92
2018-04-22T05:46:19.023Z,14.97
2018-04-22T05:47:19.016Z,15.00
2018-04-22T05:48:19.011Z,15.04
2018-04-22T05:49:19.004Z,15.18
2018-04-22T05:50:19.031Z,15.25
2018-04-22T05:51:18.994Z,15.31
2018-04-22T05:52:18.988Z,15.40
2018-04-22T05:53:18.982Z,15.47
2018-04-22T05:54:18.977Z,15.54
2018-04-22T05:55:18.973Z,15.70
2018-04-22T05:56:18.972Z,15.65
2018-04-22T05:57:19.061Z,15.82
2018-04-22T05:58:18.957Z,15.86
2018-04-22T05:59:18.955Z,16.00
2018-04-22T06:00:18.949Z,16.10
2018-04-22T06:01:18.941Z,16.26
2018-04-22T06:02:18.944Z,16.29
2018-04-22T06:03:18.932Z,16.38
2018-04-22T06:04:18.932Z,16.42
2018-04-22T06:05:18.923Z,16.54
2018-04-22T06:06:18.918Z,16.61
2018-04-22T06:07:18.917Z,16.61
2018-04-22T06:08:18.911Z,16.76
2018-04-22T06:09:18.904Z,16.61
2018-04-22T06:10:18.901Z,16.61
2018-04-22T06:11:18.897Z,16.75
2018-04-22T06:12:18.893Z,16.76
2018-04-22T06:13:18.890Z,16.89
2018-04-22T06:14:18.885Z,16.86
2018-04-22T06:15:18.881Z,17.01
2018-04-22T06:16:18.877Z,17.05
2018-04-22T06:17:18.899Z,17.11
2018-04-22T06:18:18.869Z,17.08
2018-04-22T06:19:18.866Z,17.26
2018-04-22T06:20:18.862Z,17.16
2018-04-22T06:21:18.857Z,17.19
2018-04-22T06:22:18.854Z,17.29
2018-04-22T06:23:18.850Z,17.27
2018-04-22T06:24:18.847Z,17.39
2018-04-22T06:25:18.844Z,17.39
2018-04-22T06:26:18.840Z,17.48
2018-04-22T06:27:18.837Z,17.52
2018-04-22T06:28:18.843Z,17.46
2018-04-22T06:29:18.830Z,17.52
2018-04-22T06:30:18.826Z,17.49
2018-04-22T06:31:18.823Z,17.48
2018-04-22T06:32:18.820Z,17.52
2018-04-22T06:33:18.816Z,17.56
2018-04-22T06:34:18.813Z,17.67
2018-04-22T06:35:18.813Z,17.70
2018-04-22T06:36:18.808Z,17.80
2018-04-22T06:37:18.803Z,17.86
2018-04-22T06:38:18.801Z,17.90
2018-04-22T06:39:18.798Z,17.98
2018-04-22T06:40:18.800Z,17.90
2018-04-22T06:41:18.792Z,18.08
2018-04-22T06:42:18.790Z,18.08
2018-04-22T06:43:18.786Z,18.20
2018-04-22T06:44:18.785Z,18.33
2018-04-22T06:45:18.780Z,18.37
2018-04-22T06:46:18.778Z,18.55
2018-04-22T06:47:18.775Z,18.56
2018-04-22T06:48:18.775Z,18.70
2018-04-22T06:49:18.770Z,18.78
2018-04-22T06:50:18.767Z,18.84
2018-04-22T06:51:18.765Z,18.99
2018-04-22T06:52:18.766Z,19.24
2018-04-22T06:53:18.767Z,19.27
2018-04-22T06:54:18.764Z,19.44
2018-04-22T06:55:18.757Z,19.49
2018-04-22T06:56:18.755Z,19.51
2018-04-22T06:57:18.753Z,19.62
2018-04-22T06:58:18.752Z,19.74
2018-04-22T06:59:18.753Z,19.84
2018-04-22T07:00:18.749Z,19.99
2018-04-22T07:01:18.746Z,20.03
2018-04-22T07:02:18.745Z,20.14
2018-04-22T07:03:18.746Z,20.28
2018-04-22T07:04:18.747Z,20.34
2018-04-22T07:05:18.742Z,20.41
2018-04-22T07:06:18.744Z,20.55
2018-04-22T07:07:18.742Z,20.67
2018-04-22T07:08:18.742Z,20.81
2018-04-22T07:09:18.742Z,20.77
2018-04-22T07:10:18.742Z,20.87
2018-04-22T07:11:18.742Z,21.03
2018-04-22T07:12:18.743Z,21.14
2018-04-22T07:13:18.743Z,21.29
2018-04-22T07:14:18.745Z,21.36
2018-04-22T07:15:18.755Z,21.42
2018-04-22T07:16:18.748Z,21.46
2018-04-22T07:17:18.750Z,21.54
2018-04-22T07:18:18.752Z,21.61
2018-04-22T07:19:18.757Z,21.66
2018-04-22T07:20:18.758Z,21.73
2018-04-22T07:21:18.763Z,21.77
2018-04-22T07:22:18.764Z,21.88
2018-04-22T07:23:18.769Z,21.88
2018-04-22T07:24:18.772Z,21.95
2018-04-22T07:25:18.776Z,22.07
2018-04-22T07:26:18.783Z,22.11
2018-04-22T07:27:18.886Z,22.11
2018-04-22T07:28:18.790Z,22.17
2018-04-22T07:29:18.796Z,22.18
2018-04-22T07:30:18.800Z,22.33
2018-04-22T07:31:18.804Z,22.41
2018-04-22T07:32:18.811Z,22.48
2018-04-22T07:33:18.814Z,22.62
2018-04-22T07:34:18.820Z,22.66
2018-04-22T07:35:18.825Z,22.66
2018-04-22T07:36:18.831Z,22.57
2018-04-22T07:37:18.837Z,22.60
2018-04-22T07:38:18.841Z,22.57
2018-04-22T07:39:18.849Z,22.62
2018-04-22T07:40:18.853Z,22.66
2018-04-22T07:41:18.858Z,22.70
2018-04-22T07:42:18.928Z,22.75
2018-04-22T07:43:18.870Z,22.98
2018-04-22T07:44:18.877Z,22.98
2018-04-22T07:45:18.885Z,23.17
2018-04-22T07:46:18.888Z,23.28
2018-04-22T07:47:18.898Z,23.55
2018-04-22T07:48:18.902Z,23.69
2018-04-22T07:49:18.909Z,23.77
2018-04-22T07:50:18.917Z,23.86
2018-04-22T07:51:18.927Z,23.80
2018-04-22T07:52:18.936Z,24.05
2018-04-22T07:53:18.941Z,24.24
2018-04-22T07:54:18.949Z,24.38
2018-04-22T07:55:18.958Z,24.47
2018-04-22T07:56:18.968Z,24.33
2018-04-22T07:57:18.975Z,24.29
2018-04-22T07:58:18.984Z,24.32
2018-04-22T07:59:18.994Z,24.47
2018-04-22T08:00:19.004Z,24.47
2018-04-22T08:01:19.012Z,24.40
2018-04-22T08:02:19.022Z,24.40
2018-04-22T08:03:19.132Z,24.45
2018-04-22T08:04:19.043Z,24.53
2018-04-22T08:05:19.050Z,24.65
2018-04-22T08:06:19.060Z,24.77
2018-04-22T08:07:19.077Z,24.99
2018-04-22T08:08:19.084Z,25.10
2018-04-22T08:09:19.091Z,25.22
2018-04-22T08:10:19.102Z,25.25
2018-04-22T08:11:19.129Z,24.99
2018-04-22T08:12:19.123Z,24.95
2018-04-22T08:13:19.133Z,24.88
2018-04-22T08:14:19.144Z,24.88
2018-04-22T08:15:19.154Z,24.93
2018-04-22T08:16:19.210Z,24.96
2018-04-22T08:17:19.175Z,24.85
2018-04-22T08:18:19.186Z,24.96
2018-04-22T08:19:19.197Z,25.03
2018-04-22T08:20:19.208Z,25.11
2018-04-22T08:21:19.217Z,25.10
2018-04-22T08:22:19.244Z,25.04
2018-04-22T08:23:19.241Z,25.28
2018-04-22T08:24:19.259Z,25.60
2018-04-22T08:25:19.262Z,25.87
2018-04-22T08:26:19.273Z,26.21
2018-04-22T08:27:19.284Z,26.51
2018-04-22T08:28:19.313Z,26.73
2018-04-22T08:29:19.308Z,26.58
2018-04-22T08:30:19.322Z,26.58
2018-04-22T08:31:19.334Z,26.63
2018-04-22T08:32:19.346Z,26.40
2018-04-22T08:33:19.403Z,26.34
2018-04-22T08:34:19.370Z,26.22
2018-04-22T08:35:19.385Z,26.31
2018-04-22T08:36:19.396Z,26.37
2018-04-22T08:37:19.407Z,26.65
2018-04-22T08:38:19.419Z,26.41
2018-04-22T08:39:19.432Z,26.37
2018-04-22T08:40:19.444Z,26.40
2018-04-22T08:41:19.461Z,26.07
2018-04-22T08:42:19.467Z,25.77
2018-04-22T08:43:19.478Z,25.48
2018-04-22T08:44:19.489Z,25.18
2018-04-22T08:45:19.498Z,24.91
2018-04-22T08:46:19.508Z,24.80
2018-04-22T08:47:19.517Z,24.66
2018-04-22T08:48:19.532Z,24.70
2018-04-22T08:49:19.533Z,24.69
2018-04-22T08:50:19.544Z,24.85
2018-04-22T08:51:19.551Z,24.86
2018-04-22T08:52:19.559Z,24.99
2018-04-22T08:53:19.567Z,24.93
2018-04-22T08:54:19.575Z,25.10
2018-04-22T08:55:19.583Z,25.08
2018-04-22T08:56:19.591Z,25.14
2018-04-22T08:57:19.649Z,25.21
2018-04-22T08:58:19.606Z,25.08
2018-04-22T08:59:19.615Z,25.07
2018-04-22T09:00:19.621Z,24.96
2018-04-22T09:01:19.628Z,24.99
2018-04-22T09:02:19.635Z,24.95
2018-04-22T09:03:19.642Z,24.99
2018-04-22T09:04:19.652Z,24.95
2018-04-22T09:05:19.655Z,24.93
2018-04-22T09:06:19.662Z,24.96
2018-04-22T09:07:19.669Z,25.07
2018-04-22T09:08:19.676Z,25.13
2018-04-22T09:09:19.682Z,25.08
2018-04-22T09:10:19.686Z,25.21
2018-04-22T09:11:19.693Z,25.21
2018-04-22T09:12:19.700Z,25.41
2018-04-22T09:13:19.707Z,25.41
2018-04-22T09:14:19.716Z,25.59
2018-04-22T09:15:19.820Z,25.68
2018-04-22T09:16:19.746Z,25.75
2018-04-22T09:17:19.732Z,25.95
2018-04-22T09:18:19.740Z,25.84
2018-04-22T09:19:19.748Z,25.85
2018-04-22T09:20:19.756Z,25.88
2018-04-22T09:21:19.761Z,25.96
2018-04-22T09:22:19.770Z,26.10
2018-04-22T09:23:19.779Z,26.23
2018-04-22T09:24:19.787Z,26.36
2018-04-22T09:25:19.791Z,26.52
2018-04-22T09:26:19.800Z,26.68
2018-04-22T09:27:19.808Z,26.74
2018-04-22T09:28:19.817Z,26.85
2018-04-22T09:29:19.829Z,26.89
2018-04-22T09:30:19.834Z,26.95
2018-04-22T09:31:19.841Z,26.88
2018-04-22T09:32:19.850Z,26.84
2018-04-22T09:33:19.857Z,26.99
2018-04-22T09:34:19.867Z,27.12
2018-04-22T09:35:19.875Z,27.20
2018-04-22T09:36:19.885Z,27.20
2018-04-22T09:37:19.892Z,27.08
2018-04-22T09:38:19.915Z,27.02
2018-04-22T09:39:19.913Z,26.89
2018-04-22T09:40:19.919Z,26.70
2018-04-22T09:41:19.926Z,26.63
2018-04-22T09:42:19.938Z,26.58
2018-04-22T09:43:19.943Z,26.23
2018-04-22T09:44:19.951Z,26.16
2018-04-22T09:45:19.961Z,25.98
2018-04-22T09:46:19.966Z,25.83
2018-04-22T09:47:19.977Z,25.75
2018-04-22T09:48:19.979Z,25.78
2018-04-22T09:49:19.984Z,25.80
2018-04-22T09:50:19.991Z,25.91
2018-04-22T09:51:20.048Z,26.02
2018-04-22T09:52:20.006Z,25.91
2018-04-22T09:53:20.058Z,26.03
2018-04-22T09:54:20.019Z,26.00
2018-04-22T09:55:20.026Z,26.13
2018-04-22T09:56:20.034Z,26.21
2018-04-22T09:57:20.040Z,26.13
2018-04-22T09:58:20.046Z,26.09
2018-04-22T09:59:20.055Z,26.15
2018-04-22T10:00:20.060Z,26.16
2018-04-22T10:01:20.067Z,26.37
2018-04-22T10:02:20.075Z,26.65
2018-04-22T10:03:20.086Z,27.00
2018-04-22T10:04:20.092Z,27.32
2018-04-22T10:05:20.099Z,27.77
2018-04-22T10:06:20.110Z,27.86
2018-04-22T10:07:20.121Z,27.89
2018-04-22T10:08:20.131Z,27.93
2018-04-22T10:09:20.141Z,27.89
2018-04-22T10:10:20.157Z,28.19
2018-04-22T10:11:20.164Z,28.20
2018-04-22T10:12:20.177Z,28.39
2018-04-22T10:13:20.192Z,28.64
2018-04-22T10:14:20.205Z,28.89
2018-04-22T10:15:20.215Z,29.10
2018-04-22T10:16:20.231Z,28.97
2018-04-22T10:17:20.244Z,29.23
2018-04-22T10:18:20.258Z,29.31
2018-04-22T10:19:20.274Z,29.13
2018-04-22T10:20:20.289Z,29.27
2018-04-22T10:21:20.302Z,29.14
2018-04-22T10:22:20.318Z,29.01
2018-04-22T10:23:20.335Z,29.10
2018-04-22T10:24:20.350Z,28.94
2018-04-22T10:25:20.365Z,28.94
2018-04-22T10:26:20.380Z,28.96
2018-04-22T10:27:20.400Z,29.22
2018-04-22T10:28:20.411Z,29.49
2018-04-22T10:29:20.428Z,29.51
2018-04-22T10:30:20.443Z,29.61
2018-04-22T10:31:20.460Z,29.73
2018-04-22T10:32:20.479Z,29.71
2018-04-22T10:33:20.493Z,29.65
2018-04-22T10:34:20.511Z,29.63
2018-04-22T10:35:20.527Z,29.45
2018-04-22T10:36:20.543Z,29.51
2018-04-22T10:37:20.560Z,29.65
2018-04-22T10:38:20.577Z,29.87
2018-04-22T10:39:20.594Z,30.08
2018-04-22T10:40:20.613Z,30.23
2018-04-22T10:41:20.629Z,30.19
2018-04-22T10:42:20.646Z,30.31
2018-04-22T10:43:20.664Z,30.37
2018-04-22T10:44:20.681Z,30.53
2018-04-22T10:45:20.698Z,30.34
2018-04-22T10:46:20.716Z,30.19
2018-04-22T10:47:20.734Z,29.95
2018-04-22T10:48:20.753Z,29.93
2018-04-22T10:49:20.772Z,29.95
2018-04-22T10:50:20.788Z,30.08
2018-04-22T10:51:20.804Z,30.18
2018-04-22T10:52:20.823Z,30.39
2018-04-22T10:53:20.841Z,30.23
2018-04-22T10:54:20.857Z,30.15
2018-04-22T10:55:20.875Z,30.18
2018-04-22T10:56:20.895Z,30.21
2018-04-22T10:57:20.911Z,30.24
2018-04-22T10:58:20.927Z,30.39
2018-04-22T10:59:20.946Z,30.31
2018-04-22T11:00:20.963Z,30.16
2018-04-22T11:01:20.981Z,30.21
2018-04-22T11:02:20.998Z,30.23
2018-04-22T11:03:21.017Z,30.55
2018-04-22T11:04:21.035Z,30.87
2018-04-22T11:05:21.051Z,31.20
2018-04-22T11:06:21.075Z,31.54
2018-04-22T11:07:21.143Z,31.54
2018-04-22T11:08:21.107Z,31.24
2018-04-22T11:09:21.125Z,31.07
2018-04-22T11:10:21.143Z,31.07
2018-04-22T11:11:21.164Z,31.06
2018-04-22T11:12:21.181Z,31.00
2018-04-22T11:13:21.197Z,30.92
2018-04-22T11:14:21.321Z,30.77
2018-04-22T11:15:21.234Z,30.65
2018-04-22T11:16:21.252Z,30.88
2018-04-22T11:17:21.268Z,31.02
2018-04-22T11:18:21.285Z,31.17
2018-04-22T11:19:21.304Z,30.99
2018-04-22T11:20:21.319Z,31.05
2018-04-22T11:21:21.334Z,30.66
2018-04-22T11:22:21.348Z,30.50
2018-04-22T11:23:21.365Z,30.21
2018-04-22T11:24:21.377Z,29.78
2018-04-22T11:25:21.394Z,29.49
2018-04-22T11:26:21.407Z,29.45
2018-04-22T11:27:21.467Z,29.41
2018-04-22T11:28:21.431Z,29.23
2018-04-22T11:29:21.441Z,29.16
2018-04-22T11:30:21.454Z,29.13
2018-04-22T11:31:21.466Z,28.97
2018-04-22T11:32:21.481Z,28.98
2018-04-22T11:33:21.490Z,28.96
2018-04-22T11:34:21.500Z,28.62
2018-04-22T11:35:21.512Z,28.27
2018-04-22T11:36:21.523Z,28.14
2018-04-22T11:37:21.535Z,28.10
2018-04-22T11:38:21.546Z,27.95
2018-04-22T11:39:21.557Z,28.02
2018-04-22T11:40:21.562Z,28.14
2018-04-22T11:41:21.574Z,28.26
2018-04-22T11:42:21.578Z,28.17
2018-04-22T11:43:21.588Z,28.23
2018-04-22T11:44:21.596Z,28.37
2018-04-22T11:45:21.604Z,28.32
2018-04-22T11:46:21.614Z,28.30
2018-04-22T11:47:21.623Z,28.69
2018-04-22T11:48:21.639Z,28.96
2018-04-22T11:49:21.640Z,29.31
2018-04-22T11:50:21.750Z,29.38
2018-04-22T11:51:21.661Z,29.16
2018-04-22T11:52:21.670Z,28.78
2018-04-22T11:53:21.680Z,28.67
2018-04-22T11:54:21.688Z,28.49
2018-04-22T11:55:21.697Z,28.25
2018-04-22T11:56:21.708Z,28.12
2018-04-22T11:57:21.715Z,27.92
2018-04-22T11:58:21.722Z,27.70
2018-04-22T11:59:21.730Z,27.45
2018-04-22T12:00:21.738Z,27.26
2018-04-22T12:01:21.745Z,27.07
2018-04-22T12:02:21.758Z,26.84
2018-04-22T12:03:21.761Z,26.65
2018-04-22T12:04:21.766Z,26.70
2018-04-22T12:05:21.780Z,26.60
2018-04-22T12:06:21.775Z,26.55
2018-04-22T12:07:21.787Z,26.63
2018-04-22T12:08:21.787Z,26.75
2018-04-22T12:09:21.792Z,26.89
2018-04-22T12:10:21.798Z,27.17
2018-04-22T12:11:21.803Z,27.25
2018-04-22T12:12:21.809Z,27.47
2018-04-22T12:13:21.814Z,27.30
2018-04-22T12:14:21.820Z,27.25
2018-04-22T12:15:21.826Z,27.18
2018-04-22T12:16:21.837Z,27.15
2018-04-22T12:17:21.836Z,27.17
2018-04-22T12:18:21.842Z,27.27
2018-04-22T12:19:21.849Z,27.27
2018-04-22T12:20:21.853Z,27.40
2018-04-22T12:21:21.858Z,27.51
2018-04-22T12:22:21.864Z,27.90
2018-04-22T12:23:21.871Z,28.19
2018-04-22T12:24:21.877Z,28.14
2018-04-22T12:25:21.883Z,27.92
2018-04-22T12:26:21.891Z,27.52
2018-04-22T12:27:21.895Z,27.15
2018-04-22T12:28:21.902Z,26.84
2018-04-22T12:29:21.907Z,26.55
2018-04-22T12:30:21.913Z,26.55
2018-04-22T12:31:21.922Z,26.43
2018-04-22T12:32:21.925Z,26.48
2018-04-22T12:33:21.930Z,26.83
2018-04-22T12:34:21.936Z,26.95
2018-04-22T12:35:21.945Z,26.97
2018-04-22T12:36:21.950Z,27.15
2018-04-22T12:37:21.955Z,27.20
2018-04-22T12:38:21.960Z,27.36
2018-04-22T12:39:21.966Z,27.40
2018-04-22T12:40:21.974Z,27.18
2018-04-22T12:41:21.978Z,27.20
2018-04-22T12:42:21.983Z,27.14
2018-04-22T12:43:21.990Z,26.90
2018-04-22T12:44:21.995Z,26.85
2018-04-22T12:45:21.999Z,26.71
2018-04-22T12:46:22.004Z,26.47
2018-04-22T12:47:22.010Z,26.22
2018-04-22T12:48:22.013Z,26.16
2018-04-22T12:49:22.018Z,26.03
2018-04-22T12:50:22.022Z,26.06
2018-04-22T12:51:22.027Z,26.19
2018-04-22T12:52:22.030Z,26.31